Time;durP1;ratioP1;P1;durP2;ratioP2;P2;SDS_P1;SDS_P2;PMS_P1;PMS_P2;Temp;Humidity;BMP_temperature;BMP_pressure;BME280_temperature;BME280_humidity;BME280_pressure;Samples;Min_cycle;Max_cycle;Signal;HPM_P1;HPM_P2
2024/01/31 00:00:35;;;;;;;0.00;0.00;;;11.30;71.40;;;;;;5035658;28;20324;-47
2024/01/31 00:03:02;;;;;;;0.00;0.00;;;11.30;71.40;;;;;;5037390;28;20308;-46
2024/01/31 00:05:34;;;;;;;0.00;0.00;;;11.30;71.40;;;;;;5039166;28;20228;-40
2024/01/31 00:08:04;;;;;;;0.00;0.00;;;11.30;71.50;;;;;;5036788;28;20203;-48
2024/01/31 00:10:35;;;;;;;0.00;0.00;;;11.30;71.50;;;;;;5039356;28;20213;-47
2024/01/31 00:13:03;;;;;;;0.00;0.00;;;11.30;71.50;;;;;;5021026;28;20193;-47
2024/01/31 00:15:32;;;;;;;0.00;0.00;;;11.40;71.60;;;;;;5037018;28;20743;-45
2024/01/31 00:18:02;;;;;;;0.00;0.00;;;11.40;71.60;;;;;;5024381;28;20277;-48
2024/01/31 00:20:30;;;;;;;0.00;0.00;;;11.40;71.60;;;;;;5025974;28;21251;-47
2024/01/31 00:22:59;;;;;;;0.00;0.00;;;11.40;71.60;;;;;;5025821;28;20219;-47
2024/01/31 00:25:31;;;;;;;0.00;0.00;;;11.40;71.60;;;;;;5035080;28;20319;-45
2024/01/31 00:28:03;;;;;;;0.00;0.00;;;11.40;71.60;;;;;;5026891;28;20209;-46
2024/01/31 00:30:30;;;;;;;0.00;0.00;;;11.40;71.60;;;;;;5029383;28;20223;-45
2024/01/31 00:33:02;;;;;;;0.00;0.00;;;11.40;71.60;;;;;;5032148;28;20211;-45
2024/01/31 00:35:32;;;;;;;0.00;0.00;;;11.40;71.60;;;;;;5031976;28;20236;-46
2024/01/31 00:38:02;;;;;;;0.00;0.00;;;11.40;71.60;;;;;;5047277;28;20667;-47
2024/01/31 00:40:36;;;;;;;0.00;0.00;;;11.40;71.70;;;;;;5015212;28;20204;-46
2024/01/31 00:43:04;;;;;;;0.00;0.00;;;11.40;71.70;;;;;;5040879;28;20208;-45
2024/01/31 00:45:33;;;;;;;0.00;0.00;;;11.40;71.70;;;;;;5013025;28;20935;-46
2024/01/31 00:48:03;;;;;;;0.00;0.00;;;11.40;71.60;;;;;;5049465;28;20559;-46
2024/01/31 00:50:33;;;;;;;0.00;0.00;;;11.40;71.70;;;;;;5045939;28;20709;-45
2024/01/31 00:53:00;;;;;;;0.00;0.00;;;11.40;71.60;;;;;;5036300;28;20200;-46
2024/01/31 00:55:29;;;;;;;0.00;0.00;;;11.40;71.60;;;;;;5034736;28;20233;-45
2024/01/31 00:57:59;;;;;;;0.00;0.00;;;11.40;71.60;;;;;;5040433;28;20647;-45
2024/01/31 01:00:28;;;;;;;0.00;0.00;;;11.40;71.70;;;;;;5049712;28;20208;-44
2024/01/31 01:02:55;;;;;;;0.00;0.00;;;11.40;71.70;;;;;;5044890;28;20200;-44
2024/01/31 01:05:23;;;;;;;0.00;0.00;;;11.40;71.60;;;;;;5029568;28;20725;-45
2024/01/31 01:07:50;;;;;;;0.00;0.00;;;11.40;71.60;;;;;;5036123;28;20208;-46
2024/01/31 01:10:19;;;;;;;0.00;0.00;;;11.40;71.70;;;;;;5037947;28;20722;-44
2024/01/31 01:12:51;;;;;;;0.00;0.00;;;11.40;71.70;;;;;;5035112;28;20213;-45
2024/01/31 01:15:19;;;;;;;0.00;0.00;;;11.40;71.70;;;;;;5030273;28;20575;-45
2024/01/31 01:17:46;;;;;;;0.00;0.00;;;11.40;71.70;;;;;;5035847;28;20523;-45
2024/01/31 01:20:13;;;;;;;0.00;0.00;;;11.30;71.60;;;;;;5031805;28;20208;-45
2024/01/31 01:22:45;;;;;;;0.00;0.00;;;11.40;71.60;;;;;;5034661;28;20203;-44
2024/01/31 01:25:12;;;;;;;0.00;0.00;;;11.30;71.60;;;;;;5030947;28;20303;-46
2024/01/31 01:27:40;;;;;;;0.00;0.00;;;11.30;71.60;;;;;;5029373;28;20197;-44
2024/01/31 01:30:08;;;;;;;0.00;0.00;;;11.30;71.60;;;;;;5033038;28;20212;-46
2024/01/31 01:32:37;;;;;;;0.00;0.00;;;11.30;71.50;;;;;;5034803;28;20211;-46
2024/01/31 01:35:07;;;;;;;0.00;0.00;;;11.30;71.50;;;;;;5041558;28;21052;-44
2024/01/31 01:37:34;;;;;;;0.00;0.00;;;11.30;71.60;;;;;;5041975;28;20196;-44
2024/01/31 01:40:07;;;;;;;0.00;0.00;;;11.20;71.60;;;;;;5034007;28;20253;-44
2024/01/31 01:42:40;;;;;;;0.00;0.00;;;11.20;71.60;;;;;;5035251;28;20207;-44
2024/01/31 01:45:11;;;;;;;0.00;0.00;;;11.20;71.80;;;;;;5033524;28;20695;-45
2024/01/31 01:47:42;;;;;;;0.00;0.00;;;11.20;71.70;;;;;;5038394;28;20216;-46
2024/01/31 01:50:11;;;;;;;0.00;0.00;;;11.20;71.70;;;;;;5035522;28;20204;-46
2024/01/31 01:52:41;;;;;;;0.00;0.00;;;11.20;71.80;;;;;;5032877;28;20821;-46
2024/01/31 01:55:13;;;;;;;0.00;0.00;;;11.20;71.90;;;;;;5037763;28;20239;-45
2024/01/31 01:57:43;;;;;;;0.00;0.00;;;11.20;71.90;;;;;;5032273;28;20669;-45
2024/01/31 02:00:12;;;;;;;0.00;0.00;;;11.20;71.90;;;;;;5034691;28;20207;-45
2024/01/31 02:02:42;;;;;;;0.00;0.00;;;11.20;71.80;;;;;;5022437;28;20209;-46
2024/01/31 02:05:14;;;;;;;0.00;0.00;;;11.10;71.70;;;;;;5037247;28;20313;-46
2024/01/31 02:07:47;;;;;;;0.00;0.00;;;11.20;71.80;;;;;;5043650;28;20290;-46
2024/01/31 02:10:16;;;;;;;0.00;0.00;;;11.10;71.80;;;;;;5035585;28;20216;-45
2024/01/31 02:12:44;;;;;;;0.00;0.00;;;11.10;71.80;;;;;;5041233;28;20251;-46
2024/01/31 02:15:13;;;;;;;0.00;0.00;;;11.10;71.80;;;;;;5041787;28;20200;-45
2024/01/31 02:17:40;;;;;;;0.00;0.00;;;11.10;71.80;;;;;;5026350;28;20212;-45
2024/01/31 02:20:15;;;;;;;0.00;0.00;;;11.10;71.90;;;;;;5020077;28;20706;-45
2024/01/31 02:22:49;;;;;;;0.00;0.00;;;11.10;72.00;;;;;;5036132;28;20773;-45
2024/01/31 02:25:16;;;;;;;0.00;0.00;;;11.10;72.00;;;;;;5033887;28;20714;-46
2024/01/31 02:27:43;;;;;;;0.00;0.00;;;11.10;72.10;;;;;;5030633;28;20192;-46
2024/01/31 02:30:18;;;;;;;0.00;0.00;;;11.10;72.00;;;;;;5030915;28;20976;-46
2024/01/31 02:32:45;;;;;;;0.00;0.00;;;11.10;72.00;;;;;;5045706;28;20204;-46
2024/01/31 02:35:14;;;;;;;0.00;0.00;;;11.10;72.00;;;;;;5033467;28;20332;-44
2024/01/31 02:37:44;;;;;;;0.00;0.00;;;11.10;72.10;;;;;;5032158;28;20752;-46
2024/01/31 02:40:17;;;;;;;0.00;0.00;;;11.10;72.10;;;;;;5036197;28;20207;-45
2024/01/31 02:42:46;;;;;;;0.00;0.00;;;11.10;72.10;;;;;;5034621;28;20640;-46
2024/01/31 02:45:13;;;;;;;0.00;0.00;;;11.10;72.10;;;;;;5026571;28;20634;-47
2024/01/31 02:47:43;;;;;;;0.00;0.00;;;11.10;72.10;;;;;;5038635;28;20205;-45
2024/01/31 02:50:13;;;;;;;0.00;0.00;;;11.10;72.20;;;;;;5037636;28;20199;-45
2024/01/31 02:52:41;;;;;;;0.00;0.00;;;11.10;72.30;;;;;;5034039;28;20666;-44
2024/01/31 02:55:10;;;;;;;0.00;0.00;;;11.10;72.30;;;;;;5031246;28;20696;-45
2024/01/31 02:57:38;;;;;;;0.00;0.00;;;11.10;72.30;;;;;;5033318;28;20683;-46
2024/01/31 03:00:11;;;;;;;0.00;0.00;;;11.10;72.30;;;;;;5036580;28;20212;-45
2024/01/31 03:02:43;;;;;;;0.00;0.00;;;11.10;72.30;;;;;;5039623;28;20259;-46
2024/01/31 03:05:11;;;;;;;0.00;0.00;;;11.00;72.20;;;;;;5036894;28;20219;-45
2024/01/31 03:07:44;;;;;;;0.00;0.00;;;11.10;72.40;;;;;;5040456;28;20216;-47
2024/01/31 03:10:14;;;;;;;0.00;0.00;;;11.00;72.30;;;;;;5037724;28;20694;-47
2024/01/31 03:12:41;;;;;;;0.00;0.00;;;11.10;72.40;;;;;;5040835;28;20201;-44
2024/01/31 03:15:08;;;;;;;0.00;0.00;;;11.10;72.40;;;;;;5029839;28;20201;-45
2024/01/31 03:17:38;;;;;;;0.00;0.00;;;11.10;72.40;;;;;;5044201;28;20212;-45
2024/01/31 03:20:09;;;;;;;0.00;0.00;;;11.10;72.40;;;;;;5043972;28;20230;-46
2024/01/31 03:22:36;;;;;;;0.00;0.00;;;11.10;72.40;;;;;;5042082;28;20201;-47
2024/01/31 03:25:07;;;;;;;0.00;0.00;;;11.10;72.40;;;;;;5035674;28;20284;-46
2024/01/31 03:27:37;;;;;;;0.00;0.00;;;11.10;72.40;;;;;;5038186;28;20254;-47
2024/01/31 03:30:05;;;;;;;0.00;0.00;;;11.10;72.40;;;;;;5035912;28;20195;-45
2024/01/31 03:32:36;;;;;;;0.00;0.00;;;11.00;72.40;;;;;;5032086;28;20209;-45
2024/01/31 03:35:06;;;;;;;0.00;0.00;;;11.10;72.50;;;;;;5043575;28;20240;-45
2024/01/31 03:37:36;;;;;;;0.00;0.00;;;11.10;72.60;;;;;;5044648;28;20200;-45
2024/01/31 03:40:08;;;;;;;0.00;0.00;;;11.10;72.60;;;;;;5034968;28;21072;-45
2024/01/31 03:42:36;;;;;;;0.00;0.00;;;11.10;72.70;;;;;;5033819;28;20220;-45
2024/01/31 03:45:06;;;;;;;0.00;0.00;;;11.10;72.50;;;;;;5025778;28;20207;-45
2024/01/31 03:47:35;;;;;;;0.00;0.00;;;11.10;72.50;;;;;;5041652;28;20235;-46
2024/01/31 03:50:04;;;;;;;0.00;0.00;;;11.00;72.50;;;;;;5035321;28;20205;-45
2024/01/31 03:52:32;;;;;;;0.00;0.00;;;11.00;72.50;;;;;;5029002;28;20326;-47
2024/01/31 03:55:02;;;;;;;0.00;0.00;;;11.00;73.20;;;;;;5028799;28;20193;-44
2024/01/31 03:57:29;;;;;;;0.00;0.00;;;11.00;72.50;;;;;;5030428;28;20315;-46
2024/01/31 04:00:04;;;;;;;0.00;0.00;;;11.00;72.50;;;;;;5027843;28;20212;-45
2024/01/31 04:02:33;;;;;;;0.00;0.00;;;11.00;73.20;;;;;;5041282;28;20235;-46
2024/01/31 04:05:08;;;;;;;0.00;0.00;;;11.00;72.50;;;;;;5028475;28;20255;-45
2024/01/31 04:07:35;;;;;;;0.00;0.00;;;11.00;72.50;;;;;;5052358;28;20254;-46
2024/01/31 04:10:04;;;;;;;0.00;0.00;;;11.00;72.60;;;;;;5035707;28;20712;-45
2024/01/31 04:12:31;;;;;;;0.00;0.00;;;11.00;72.60;;;;;;5038680;28;20205;-45
2024/01/31 04:15:00;;;;;;;0.00;0.00;;;10.90;72.50;;;;;;5041323;28;20200;-45
2024/01/31 04:17:27;;;;;;;0.00;0.00;;;10.90;72.60;;;;;;5037867;28;20781;-46
2024/01/31 04:19:55;;;;;;;0.00;0.00;;;10.90;72.60;;;;;;5035372;28;20201;-45
2024/01/31 04:22:22;;;;;;;0.00;0.00;;;10.90;72.60;;;;;;5032415;28;20202;-45
2024/01/31 04:24:52;;;;;;;0.00;0.00;;;10.90;72.70;;;;;;5034431;28;20224;-46
2024/01/31 04:27:24;;;;;;;0.00;0.00;;;10.90;72.70;;;;;;5034662;28;20243;-44
2024/01/31 04:29:51;;;;;;;0.00;0.00;;;10.90;72.70;;;;;;5035361;28;20200;-45
2024/01/31 04:32:21;;;;;;;0.00;0.00;;;10.90;72.70;;;;;;5032380;28;20201;-44
2024/01/31 04:34:50;;;;;;;0.00;0.00;;;10.90;72.70;;;;;;5035428;28;20231;-44
2024/01/31 04:37:20;;;;;;;0.00;0.00;;;10.90;72.70;;;;;;5038067;28;20217;-46
2024/01/31 04:39:51;;;;;;;0.00;0.00;;;10.90;72.70;;;;;;5027340;28;20209;-44
2024/01/31 04:42:24;;;;;;;0.00;0.00;;;10.90;72.70;;;;;;5032770;28;20279;-45
2024/01/31 04:44:51;;;;;;;0.00;0.00;;;10.90;72.70;;;;;;5039180;28;20622;-45
2024/01/31 04:47:18;;;;;;;0.00;0.00;;;10.90;72.70;;;;;;5033582;28;20298;-45
2024/01/31 04:49:45;;;;;;;0.00;0.00;;;11.00;72.80;;;;;;5030706;28;20196;-45
2024/01/31 04:52:12;;;;;;;0.00;0.00;;;10.90;72.70;;;;;;5035678;28;20532;-44
2024/01/31 04:54:44;;;;;;;0.00;0.00;;;10.90;72.80;;;;;;5034266;28;20255;-44
2024/01/31 04:57:12;;;;;;;0.00;0.00;;;10.90;72.70;;;;;;5032899;28;20216;-45
2024/01/31 04:59:43;;;;;;;0.00;0.00;;;11.00;72.80;;;;;;5030147;28;20551;-44
2024/01/31 05:02:13;;;;;;;0.00;0.00;;;10.90;72.80;;;;;;5037760;28;20569;-46
2024/01/31 05:04:40;;;;;;;0.00;0.00;;;10.90;72.80;;;;;;5033834;28;20196;-44
2024/01/31 05:07:12;;;;;;;0.00;0.00;;;10.90;72.80;;;;;;5041205;28;20221;-45
2024/01/31 05:09:41;;;;;;;0.00;0.00;;;10.90;72.80;;;;;;5030227;28;20743;-45
2024/01/31 05:12:14;;;;;;;0.00;0.00;;;11.00;72.80;;;;;;5033684;28;20200;-44
2024/01/31 05:14:43;;;;;;;0.00;0.00;;;11.00;72.80;;;;;;5031248;28;20228;-44
2024/01/31 05:17:15;;;;;;;0.00;0.00;;;10.90;72.90;;;;;;5033901;28;20208;-44
2024/01/31 05:19:43;;;;;;;0.00;0.00;;;11.00;72.90;;;;;;5031301;28;20263;-44
2024/01/31 05:22:14;;;;;;;0.00;0.00;;;11.00;72.90;;;;;;5037065;28;20200;-44
2024/01/31 05:24:44;;;;;;;0.00;0.00;;;11.00;72.90;;;;;;5036862;28;20204;-45
2024/01/31 05:27:11;;;;;;;0.00;0.00;;;10.90;72.80;;;;;;5024791;28;20237;-46
2024/01/31 05:29:44;;;;;;;0.00;0.00;;;10.90;72.80;;;;;;5036787;28;20205;-45
2024/01/31 05:32:13;;;;;;;0.00;0.00;;;10.90;72.80;;;;;;5027995;28;20212;-45
2024/01/31 05:34:44;;;;;;;0.00;0.00;;;10.90;72.80;;;;;;5033420;28;20236;-44
2024/01/31 05:37:14;;;;;;;0.00;0.00;;;10.90;72.90;;;;;;5016430;28;20224;-45
2024/01/31 05:39:41;;;;;;;0.00;0.00;;;10.90;72.90;;;;;;5033016;28;20203;-45
2024/01/31 05:42:09;;;;;;;0.00;0.00;;;10.90;72.80;;;;;;5041603;28;20293;-44
2024/01/31 05:44:43;;;;;;;0.00;0.00;;;10.90;72.80;;;;;;5039005;28;20216;-44
2024/01/31 05:47:14;;;;;;;0.00;0.00;;;10.90;72.80;;;;;;5030753;28;20220;-46
2024/01/31 05:49:44;;;;;;;0.00;0.00;;;10.90;72.80;;;;;;5029309;28;20204;-44
2024/01/31 05:52:14;;;;;;;0.00;0.00;;;10.90;72.80;;;;;;5044051;28;20208;-45
2024/01/31 05:54:41;;;;;;;0.00;0.00;;;10.90;72.90;;;;;;5043411;28;20290;-44
2024/01/31 05:57:13;;;;;;;0.00;0.00;;;10.90;72.90;;;;;;5050460;28;20200;-45
2024/01/31 05:59:41;;;;;;;0.00;0.00;;;10.90;73.00;;;;;;5038964;28;20255;-44
2024/01/31 06:02:13;;;;;;;0.00;0.00;;;10.90;73.00;;;;;;5032259;28;20208;-44
2024/01/31 06:04:44;;;;;;;0.00;0.00;;;10.90;72.90;;;;;;5033958;28;20198;-44
2024/01/31 06:07:16;;;;;;;0.00;0.00;;;10.90;73.00;;;;;;5036899;28;20302;-47
2024/01/31 06:09:43;;;;;;;0.00;0.00;;;10.90;73.00;;;;;;5031982;28;20231;-43
2024/01/31 06:12:11;;;;;;;0.00;0.00;;;10.90;73.00;;;;;;5030577;28;20208;-44
2024/01/31 06:14:38;;;;;;;0.00;0.00;;;10.80;72.90;;;;;;5026301;28;20205;-43
2024/01/31 06:17:09;;;;;;;0.00;0.00;;;10.80;73.00;;;;;;5030253;28;21086;-44
2024/01/31 06:19:38;;;;;;;0.00;0.00;;;10.80;72.90;;;;;;5042539;28;20279;-44
2024/01/31 06:22:07;;;;;;;0.00;0.00;;;10.90;73.00;;;;;;5030765;28;20203;-46
2024/01/31 06:24:37;;;;;;;0.00;0.00;;;10.80;73.00;;;;;;5015753;28;20204;-44
2024/01/31 06:27:06;;;;;;;0.00;0.00;;;10.90;73.00;;;;;;5030729;28;20220;-45
2024/01/31 06:29:38;;;;;;;0.00;0.00;;;10.80;72.90;;;;;;5042650;28;20208;-45
2024/01/31 06:32:11;;;;;;;0.00;0.00;;;10.80;72.90;;;;;;5029500;28;20219;-45
2024/01/31 06:34:40;;;;;;;0.00;0.00;;;10.80;73.00;;;;;;5024662;28;20232;-46
2024/01/31 06:37:08;;;;;;;0.00;0.00;;;10.80;73.00;;;;;;5026144;28;20663;-45
2024/01/31 06:39:39;;;;;;;0.00;0.00;;;10.80;73.10;;;;;;5036972;28;20605;-45
2024/01/31 06:42:11;;;;;;;0.00;0.00;;;10.80;73.00;;;;;;5034964;28;20226;-45
2024/01/31 06:44:39;;;;;;;0.00;0.00;;;10.80;73.10;;;;;;5032410;28;20718;-45
2024/01/31 06:47:08;;;;;;;0.00;0.00;;;10.80;73.10;;;;;;5051429;28;20219;-45
2024/01/31 06:49:38;;;;;;;0.00;0.00;;;10.80;73.10;;;;;;5048037;28;20231;-44
2024/01/31 06:52:06;;;;;;;0.00;0.00;;;10.80;73.10;;;;;;5034094;28;20203;-44
2024/01/31 06:54:33;;;;;;;0.00;0.00;;;10.80;73.00;;;;;;5047059;28;20683;-44
2024/01/31 06:57:01;;;;;;;0.00;0.00;;;10.80;73.10;;;;;;5035733;28;20207;-45
2024/01/31 06:59:30;;;;;;;0.00;0.00;;;10.80;73.10;;;;;;5039340;28;20208;-44
2024/01/31 07:02:00;;;;;;;0.00;0.00;;;10.80;73.10;;;;;;5030834;28;20291;-44
2024/01/31 07:04:27;;;;;;;0.00;0.00;;;10.80;73.00;;;;;;5033179;28;20209;-45
2024/01/31 07:06:55;;;;;;;0.00;0.00;;;10.80;73.00;;;;;;5033438;28;20374;-44
2024/01/31 07:09:31;;;;;;;0.00;0.00;;;10.80;73.00;;;;;;5033985;28;20192;-44
2024/01/31 07:12:02;;;;;;;0.00;0.00;;;10.80;73.00;;;;;;5033992;28;20261;-47
2024/01/31 07:14:30;;;;;;;0.00;0.00;;;10.80;73.00;;;;;;5030934;28;20597;-45
2024/01/31 07:16:59;;;;;;;0.00;0.00;;;10.80;73.00;;;;;;5032111;28;20284;-45
2024/01/31 07:19:27;;;;;;;0.00;0.00;;;10.80;73.10;;;;;;5028571;28;20212;-44
2024/01/31 07:21:57;;;;;;;0.00;0.00;;;10.80;73.10;;;;;;5034921;28;20208;-46
2024/01/31 07:24:24;;;;;;;0.00;0.00;;;10.80;73.10;;;;;;5033001;28;20577;-45
2024/01/31 07:26:58;;;;;;;0.00;0.00;;;10.70;73.00;;;;;;5031326;28;20304;-44
2024/01/31 07:29:28;;;;;;;0.00;0.00;;;10.80;73.20;;;;;;5025943;28;20224;-45
2024/01/31 07:31:55;;;;;;;0.00;0.00;;;10.80;73.10;;;;;;5027520;28;20208;-46
2024/01/31 07:34:25;;;;;;;0.00;0.00;;;10.80;73.10;;;;;;5037120;28;20806;-45
2024/01/31 07:36:52;;;;;;;0.00;0.00;;;10.70;73.10;;;;;;5036324;28;20263;-45
2024/01/31 07:39:19;;;;;;;0.00;0.00;;;10.80;73.10;;;;;;5041449;28;20231;-46
2024/01/31 07:41:47;;;;;;;0.00;0.00;;;10.80;73.10;;;;;;5042451;28;20535;-44
2024/01/31 07:44:17;;;;;;;0.00;0.00;;;10.80;73.20;;;;;;5044335;28;20228;-44
2024/01/31 07:46:44;;;;;;;0.00;0.00;;;10.80;73.20;;;;;;5033624;28;20232;-45
2024/01/31 07:49:13;;;;;;;0.00;0.00;;;10.80;73.20;;;;;;5036282;28;20185;-45
2024/01/31 07:51:42;;;;;;;0.00;0.00;;;10.80;73.30;;;;;;5037972;28;20205;-44
2024/01/31 07:54:15;;;;;;;0.00;0.00;;;10.80;73.20;;;;;;5037568;28;20227;-44
2024/01/31 07:56:42;;;;;;;0.00;0.00;;;10.80;73.20;;;;;;5040676;28;20560;-44
2024/01/31 07:59:12;;;;;;;0.00;0.00;;;10.80;73.50;;;;;;5036189;28;20204;-44
2024/01/31 08:01:44;;;;;;;0.00;0.00;;;10.80;73.10;;;;;;5030073;28;20213;-44
2024/01/31 08:04:11;;;;;;;0.00;0.00;;;10.80;73.10;;;;;;5027538;28;20604;-45
2024/01/31 08:06:45;;;;;;;0.00;0.00;;;10.80;73.10;;;;;;5032787;28;20228;-46
2024/01/31 08:09:15;;;;;;;0.00;0.00;;;10.80;73.10;;;;;;5042434;28;20204;-45
2024/01/31 08:11:51;;;;;;;0.00;0.00;;;10.80;73.10;;;;;;5036603;28;20209;-44
2024/01/31 08:14:21;;;;;;;0.00;0.00;;;10.80;73.10;;;;;;5033807;28;20789;-44
2024/01/31 08:16:51;;;;;;;0.00;0.00;;;10.80;73.20;;;;;;5036723;28;20347;-46
2024/01/31 08:19:23;;;;;;;0.00;0.00;;;10.70;73.10;;;;;;5045423;28;20314;-44
2024/01/31 08:21:53;;;;;;;0.00;0.00;;;10.70;73.20;;;;;;5041147;28;20728;-47
2024/01/31 08:24:23;;;;;;;0.00;0.00;;;10.70;73.20;;;;;;5039593;28;20667;-45
2024/01/31 08:26:52;;;;;;;0.00;0.00;;;10.70;73.10;;;;;;5039161;28;20686;-44
2024/01/31 08:29:21;;;;;;;0.00;0.00;;;10.70;73.20;;;;;;5039286;28;20302;-44
2024/01/31 08:31:53;;;;;;;0.00;0.00;;;10.80;73.30;;;;;;5043186;28;20206;-44
2024/01/31 08:34:27;;;;;;;0.00;0.00;;;10.70;73.20;;;;;;5036743;28;20710;-45
2024/01/31 08:37:01;;;;;;;0.00;0.00;;;10.80;73.30;;;;;;5040096;28;20203;-44
2024/01/31 08:39:31;;;;;;;0.00;0.00;;;10.70;73.20;;;;;;5035653;28;20201;-45
2024/01/31 08:41:58;;;;;;;0.00;0.00;;;10.80;73.40;;;;;;5037795;28;20232;-44
2024/01/31 08:44:26;;;;;;;0.00;0.00;;;10.80;73.40;;;;;;5048032;28;20204;-44
2024/01/31 08:46:56;;;;;;;0.00;0.00;;;10.80;73.40;;;;;;5047497;28;20224;-45
2024/01/31 08:49:43;;;;;;;0.00;0.00;;;10.80;73.40;;;;;;5040607;28;20273;-44
2024/01/31 08:52:11;;;;;;;0.00;0.00;;;10.80;73.40;;;;;;5030576;28;20568;-45
2024/01/31 08:54:39;;;;;;;0.00;0.00;;;10.80;73.40;;;;;;5033510;28;20213;-44
2024/01/31 08:57:06;;;;;;;0.00;0.00;;;10.80;74.20;;;;;;5041756;28;20318;-44
2024/01/31 08:59:38;;;;;;;0.00;0.00;;;10.80;73.40;;;;;;5043102;28;20205;-44
2024/01/31 09:02:07;;;;;;;0.00;0.00;;;10.80;73.40;;;;;;5038291;28;20200;-44
2024/01/31 09:04:39;;;;;;;0.00;0.00;;;10.80;73.40;;;;;;5034990;28;20219;-44
2024/01/31 09:07:10;;;;;;;0.00;0.00;;;10.90;73.40;;;;;;5043571;28;20243;-44
2024/01/31 09:09:39;;;;;;;0.00;0.00;;;10.90;73.40;;;;;;5037134;28;20204;-44
2024/01/31 09:12:08;;;;;;;0.00;0.00;;;10.90;73.40;;;;;;5042953;28;20196;-45
2024/01/31 09:14:38;;;;;;;0.00;0.00;;;10.90;73.30;;;;;;5040356;28;20212;-45
2024/01/31 09:17:07;;;;;;;0.00;0.00;;;10.90;73.40;;;;;;5036258;28;20208;-45
2024/01/31 09:19:40;;;;;;;0.00;0.00;;;10.90;73.30;;;;;;5039183;28;20200;-45
2024/01/31 09:22:15;;;;;;;0.00;0.00;;;10.90;73.30;;;;;;5032663;28;20231;-45
2024/01/31 09:24:42;;;;;;;0.00;0.00;;;10.90;73.30;;;;;;5031683;28;20205;-45
2024/01/31 09:27:09;;;;;;;0.00;0.00;;;10.90;73.30;;;;;;5035892;28;20271;-46
2024/01/31 09:29:36;;;;;;;0.00;0.00;;;10.90;73.20;;;;;;5029857;28;20603;-46
2024/01/31 09:32:06;;;;;;;0.00;0.00;;;10.90;73.20;;;;;;5030898;28;20267;-45
2024/01/31 09:34:38;;;;;;;0.00;0.00;;;10.90;73.20;;;;;;5034284;28;20671;-45
2024/01/31 09:37:06;;;;;;;0.00;0.00;;;10.90;73.30;;;;;;5032153;28;20211;-44
2024/01/31 09:39:35;;;;;;;0.00;0.00;;;10.90;73.20;;;;;;5032481;28;20306;-45
2024/01/31 09:42:05;;;;;;;0.00;0.00;;;10.90;73.30;;;;;;5035234;28;20679;-45
2024/01/31 09:44:34;;;;;;;0.00;0.00;;;10.90;73.20;;;;;;5025854;28;20211;-45
2024/01/31 09:47:02;;;;;;;0.00;0.00;;;10.90;73.20;;;;;;5042760;28;20286;-45
2024/01/31 09:49:29;;;;;;;0.00;0.00;;;10.90;73.20;;;;;;5037238;28;20212;-46
2024/01/31 09:52:00;;;;;;;0.00;0.00;;;10.90;73.20;;;;;;5032765;28;20193;-45
2024/01/31 09:54:29;;;;;;;0.00;0.00;;;10.90;73.20;;;;;;5039223;28;20204;-45
2024/01/31 09:56:57;;;;;;;0.00;0.00;;;10.90;73.20;;;;;;5038300;28;20639;-47
2024/01/31 09:59:27;;;;;;;0.00;0.00;;;10.90;73.10;;;;;;5037256;28;20208;-45
2024/01/31 10:01:59;;;;;;;0.00;0.00;;;10.90;73.10;;;;;;5033973;28;20211;-44
2024/01/31 10:04:27;;;;;;;0.00;0.00;;;10.90;73.10;;;;;;5037035;28;20201;-45
2024/01/31 10:06:54;;;;;;;0.00;0.00;;;10.90;73.00;;;;;;5034253;28;20217;-45
2024/01/31 10:09:21;;;;;;;0.00;0.00;;;10.90;73.00;;;;;;5041458;28;20615;-47
2024/01/31 10:11:52;;;;;;;0.00;0.00;;;10.90;73.00;;;;;;5035493;28;20204;-47
2024/01/31 10:14:19;;;;;;;0.00;0.00;;;10.90;72.80;;;;;;5036437;28;20310;-45
2024/01/31 10:16:46;;;;;;;0.00;0.00;;;11.00;72.80;;;;;;5030892;28;20197;-47
2024/01/31 10:19:18;;;;;;;0.00;0.00;;;10.90;72.70;;;;;;5037703;28;20204;-46
2024/01/31 10:21:48;;;;;;;0.00;0.00;;;10.90;72.50;;;;;;5034557;28;20224;-46
2024/01/31 10:24:15;;;;;;;0.00;0.00;;;10.90;72.60;;;;;;5025165;28;20335;-45
2024/01/31 10:26:45;;;;;;;0.00;0.00;;;10.90;72.60;;;;;;5037685;28;20306;-45
2024/01/31 10:29:17;;;;;;;0.00;0.00;;;10.90;72.30;;;;;;5047862;28;20227;-44
2024/01/31 10:31:49;;;;;;;0.00;0.00;;;10.90;72.30;;;;;;5039015;28;20193;-45
2024/01/31 10:34:25;;;;;;;0.00;0.00;;;10.80;71.90;;;;;;5028691;28;20251;-45
2024/01/31 10:37:06;;;;;;;0.00;0.00;;;10.80;72.00;;;;;;4998744;28;20213;-45
2024/01/31 10:39:55;;;;;;;0.00;0.00;;;10.80;71.90;;;;;;5018166;28;20197;-45
2024/01/31 10:42:28;;;;;;;0.00;0.00;;;10.80;71.80;;;;;;5027051;28;20446;-45
2024/01/31 10:44:57;;;;;;;0.00;0.00;;;10.70;72.00;;;;;;5027314;28;20216;-47
2024/01/31 10:47:27;;;;;;;0.00;0.00;;;10.70;71.80;;;;;;5040055;28;20221;-45
2024/01/31 10:49:58;;;;;;;0.00;0.00;;;10.70;72.10;;;;;;5045805;28;20212;-45
2024/01/31 10:52:31;;;;;;;0.00;0.00;;;10.70;72.10;;;;;;5034762;28;20197;-46
2024/01/31 10:55:03;;;;;;;0.00;0.00;;;10.70;72.10;;;;;;5038324;28;20312;-46
2024/01/31 10:57:39;;;;;;;0.00;0.00;;;10.70;72.20;;;;;;5037260;28;20208;-45
2024/01/31 11:00:20;;;;;;;0.00;0.00;;;10.70;72.10;;;;;;5029970;28;20220;-45
2024/01/31 11:02:50;;;;;;;0.00;0.00;;;10.70;72.30;;;;;;5028588;28;20238;-44
2024/01/31 11:05:20;;;;;;;0.00;0.00;;;10.70;72.30;;;;;;5039255;28;20197;-46
2024/01/31 11:07:50;;;;;;;0.00;0.00;;;10.70;72.20;;;;;;5036797;28;20228;-44
2024/01/31 11:10:26;;;;;;;0.00;0.00;;;10.70;72.30;;;;;;5021892;28;20208;-44
2024/01/31 11:13:00;;;;;;;0.00;0.00;;;10.70;72.40;;;;;;5032843;28;20197;-45
2024/01/31 11:15:35;;;;;;;0.00;0.00;;;10.70;72.30;;;;;;5038631;28;20867;-44
2024/01/31 11:18:13;;;;;;;0.00;0.00;;;10.80;72.30;;;;;;5037634;28;20250;-46
2024/01/31 11:20:49;;;;;;;0.00;0.00;;;10.70;72.20;;;;;;5033714;28;20212;-44
2024/01/31 11:23:23;;;;;;;0.00;0.00;;;10.80;72.30;;;;;;5035966;28;20671;-44
2024/01/31 11:25:51;;;;;;;0.00;0.00;;;10.80;72.30;;;;;;5030425;28;20545;-44
2024/01/31 11:28:27;;;;;;;0.00;0.00;;;10.80;72.30;;;;;;5023404;28;20219;-45
2024/01/31 11:31:01;;;;;;;0.00;0.00;;;10.80;72.20;;;;;;5037433;28;20295;-44
2024/01/31 11:33:32;;;;;;;0.00;0.00;;;10.80;72.20;;;;;;5037602;28;20561;-44
2024/01/31 11:36:02;;;;;;;0.00;0.00;;;10.80;72.40;;;;;;5042661;28;23049;-42
2024/01/31 11:38:36;;;;;;;0.00;0.00;;;10.80;72.20;;;;;;5036502;28;21018;-45
2024/01/31 11:41:04;;;;;;;0.00;0.00;;;10.80;71.70;;;;;;5037070;28;20560;-45
2024/01/31 11:43:31;;;;;;;0.00;0.00;;;10.80;71.70;;;;;;5043612;28;20674;-45
2024/01/31 11:45:58;;;;;;;0.00;0.00;;;10.80;71.30;;;;;;5042875;28;20214;-45
2024/01/31 11:48:30;;;;;;;0.00;0.00;;;10.70;71.20;;;;;;5041037;28;20224;-46
2024/01/31 11:51:00;;;;;;;0.00;0.00;;;10.70;71.40;;;;;;5042917;28;20204;-45
2024/01/31 11:53:30;;;;;;;0.00;0.00;;;10.70;71.50;;;;;;5035598;28;20644;-44
2024/01/31 11:56:00;;;;;;;0.00;0.00;;;10.70;72.40;;;;;;5043111;28;20664;-47
2024/01/31 11:58:30;;;;;;;0.00;0.00;;;10.70;71.50;;;;;;5040234;28;20294;-45
2024/01/31 12:00:58;;;;;;;0.00;0.00;;;10.70;71.60;;;;;;5040811;28;20197;-47
2024/01/31 12:03:25;;;;;;;0.00;0.00;;;10.70;71.50;;;;;;5032681;28;20327;-44
2024/01/31 12:05:59;;;;;;;0.00;0.00;;;10.70;71.40;;;;;;5036430;28;20297;-44
2024/01/31 12:08:31;;;;;;;0.00;0.00;;;10.70;70.90;;;;;;5043147;28;20247;-46
2024/01/31 12:11:02;;;;;;;0.00;0.00;;;10.70;71.10;;;;;;5047088;28;20287;-45
2024/01/31 12:13:29;;;;;;;0.00;0.00;;;10.70;71.30;;;;;;5027625;28;20597;-45
2024/01/31 12:15:59;;;;;;;0.00;0.00;;;10.70;71.50;;;;;;5033382;28;20263;-46
2024/01/31 12:18:27;;;;;;;0.00;0.00;;;10.70;71.40;;;;;;5037368;28;20197;-46
2024/01/31 12:21:10;;;;;;;0.00;0.00;;;10.70;71.50;;;;;;5046368;28;20201;-46
2024/01/31 12:23:39;;;;;;;0.00;0.00;;;10.70;71.40;;;;;;5037695;28;20297;-44
2024/01/31 12:26:07;;;;;;;0.00;0.00;;;10.70;71.50;;;;;;5044627;28;20573;-46
2024/01/31 12:28:41;;;;;;;0.00;0.00;;;10.70;71.30;;;;;;5032878;28;20249;-45
2024/01/31 12:31:10;;;;;;;0.00;0.00;;;10.70;71.50;;;;;;5031835;28;20216;-45
2024/01/31 12:33:40;;;;;;;0.00;0.00;;;10.80;71.60;;;;;;5042323;28;20212;-45
2024/01/31 12:36:08;;;;;;;0.00;0.00;;;10.80;71.60;;;;;;5033939;28;20224;-46
2024/01/31 12:38:38;;;;;;;0.00;0.00;;;10.80;71.60;;;;;;5041873;28;20213;-45
2024/01/31 12:41:06;;;;;;;0.00;0.00;;;10.80;71.40;;;;;;5047914;28;20230;-46
2024/01/31 12:43:38;;;;;;;0.00;0.00;;;10.80;71.30;;;;;;5034781;28;20209;-44
2024/01/31 12:46:11;;;;;;;0.00;0.00;;;10.80;71.20;;;;;;5038166;28;20683;-45
2024/01/31 12:48:40;;;;;;;0.00;0.00;;;10.90;71.00;;;;;;5039187;28;20219;-46
2024/01/31 12:51:08;;;;;;;0.00;0.00;;;10.90;70.70;;;;;;5040921;28;20205;-45
2024/01/31 12:53:35;;;;;;;0.00;0.00;;;10.80;70.90;;;;;;5040756;28;20196;-45
2024/01/31 12:56:04;;;;;;;0.00;0.00;;;10.80;71.00;;;;;;5039010;28;20227;-44
2024/01/31 12:58:32;;;;;;;0.00;0.00;;;10.80;71.00;;;;;;5033501;28;20208;-45
2024/01/31 13:00:59;;;;;;;0.00;0.00;;;10.80;70.90;;;;;;5043887;28;20204;-46